createdAt,value
2018-06-29T00:01:32.530Z,85.60
2018-06-29T00:04:01.938Z,86.00
2018-06-29T00:06:31.395Z,86.30
2018-06-29T00:11:30.210Z,87.40
2018-06-29T00:16:29.853Z,87.70
2018-06-29T00:19:01.170Z,88.00
2018-06-29T00:24:00.346Z,88.60
2018-06-29T00:26:29.696Z,89.00
2018-06-29T00:31:30.669Z,89.60
2018-06-29T00:34:00.051Z,90.00
2018-06-29T00:38:58.345Z,90.20
2018-06-29T00:43:56.612Z,90.40
2018-06-29T00:46:26.700Z,90.50
2018-06-29T00:48:56.074Z,90.60
2018-06-29T00:51:25.362Z,90.60
2018-06-29T00:53:54.778Z,90.70
2018-06-29T00:56:24.080Z,90.80
2018-06-29T00:59:01.046Z,90.90
2018-06-29T01:04:07.005Z,91.00
2018-06-29T01:11:37.264Z,91.30
2018-06-29T01:16:36.824Z,91.40
2018-06-29T01:19:06.510Z,91.40
2018-06-29T01:21:36.265Z,91.40
2018-06-29T01:24:06.357Z,91.50
2018-06-29T01:26:36.336Z,91.60
2018-06-29T01:31:34.824Z,91.60
2018-06-29T01:39:02.854Z,91.70
2018-06-29T01:41:32.359Z,91.70
2018-06-29T01:44:01.763Z,91.70
2018-06-29T01:46:31.168Z,91.70
2018-06-29T01:49:00.673Z,91.70
2018-06-29T01:51:30.664Z,91.80
2018-06-29T01:56:29.652Z,91.70
2018-06-29T01:58:59.043Z,91.60
2018-06-29T02:01:28.359Z,91.60
2018-06-29T02:03:57.627Z,91.60
2018-06-29T02:06:27.043Z,91.50
2018-06-29T02:08:56.438Z,91.50
2018-06-29T02:11:25.719Z,91.60
2018-06-29T02:13:55.084Z,91.60
2018-06-29T02:18:53.423Z,91.80
2018-06-29T02:21:22.677Z,91.70
2018-06-29T02:33:48.825Z,91.90
2018-06-29T02:36:18.149Z,91.90
2018-06-29T02:41:16.541Z,92.10
2018-06-29T02:46:15.045Z,92.20
2018-06-29T02:51:13.534Z,92.20
2018-06-29T02:58:40.749Z,92.40
2018-06-29T03:01:10.144Z,92.60
2018-06-29T03:03:39.617Z,92.20
2018-06-29T03:06:08.931Z,92.30
2018-06-29T03:11:07.179Z,92.20
2018-06-29T03:13:36.622Z,92.20
2018-06-29T03:18:35.107Z,92.10
2018-06-29T03:23:33.751Z,92.20
2018-06-29T03:26:03.086Z,92.00
2018-06-29T03:28:32.353Z,91.90
2018-06-29T03:31:02.814Z,92.00
2018-06-29T03:33:32.183Z,91.80
2018-06-29T03:36:01.489Z,91.70
2018-06-29T03:38:30.867Z,91.40
2018-06-29T03:41:00.791Z,91.30
2018-06-29T03:43:30.143Z,91.30
2018-06-29T03:46:00.400Z,91.30
2018-06-29T03:48:30.364Z,91.40
2018-06-29T03:50:59.939Z,91.50
2018-06-29T03:53:29.294Z,91.60
2018-06-29T03:55:58.699Z,91.50
2018-06-29T03:58:28.052Z,91.80
2018-06-29T04:00:57.572Z,91.50
2018-06-29T04:03:27.104Z,91.30
2018-06-29T04:05:56.715Z,91.40
2018-06-29T04:08:26.091Z,91.30
2018-06-29T04:10:55.963Z,91.30
2018-06-29T04:13:25.304Z,91.20
2018-06-29T04:15:54.679Z,91.20
2018-06-29T04:18:24.007Z,91.00
2018-06-29T04:20:53.360Z,90.60
2018-06-29T04:23:22.698Z,90.30
2018-06-29T04:25:52.048Z,90.10
2018-06-29T04:30:50.238Z,89.30
2018-06-29T04:33:19.635Z,88.90
2018-06-29T04:43:17.050Z,87.90
2018-06-29T04:45:46.581Z,87.80
2018-06-29T04:48:15.986Z,87.80
2018-06-29T04:50:45.244Z,87.70
2018-06-29T04:55:43.578Z,87.50
2018-06-29T04:58:12.938Z,87.40
2018-06-29T05:03:12.548Z,87.10
2018-06-29T05:05:42.190Z,87.10
2018-06-29T05:08:11.510Z,86.90
2018-06-29T05:10:40.831Z,86.80
2018-06-29T05:13:10.461Z,86.70
2018-06-29T05:15:39.760Z,86.80
2018-06-29T05:18:09.443Z,86.90
2018-06-29T05:20:38.758Z,86.50
2018-06-29T05:23:08.069Z,86.50
2018-06-29T05:28:06.279Z,87.00
2018-06-29T05:33:04.578Z,85.50
2018-06-29T05:35:33.852Z,85.20
2018-06-29T05:38:03.407Z,85.00
2018-06-29T05:40:33.439Z,84.90
2018-06-29T05:43:02.789Z,84.70
2018-06-29T05:48:01.207Z,83.70
2018-06-29T05:50:30.579Z,83.20
2018-06-29T05:55:29.216Z,82.30
2018-06-29T05:57:59.501Z,81.40
2018-06-29T06:02:57.765Z,80.50
2018-06-29T06:05:27.285Z,79.90
2018-06-29T06:07:56.697Z,79.00
2018-06-29T06:17:52.942Z,76.30
2018-06-29T06:20:22.345Z,75.60
2018-06-29T06:22:51.624Z,75.00
2018-06-29T06:25:21.008Z,73.80
2018-06-29T06:27:50.434Z,73.50
2018-06-29T06:30:19.861Z,73.00
2018-06-29T06:32:49.253Z,72.40
2018-06-29T06:35:18.558Z,71.80
2018-06-29T06:37:48.149Z,71.30
2018-06-29T06:40:17.540Z,70.40
2018-06-29T06:42:46.843Z,69.90
2018-06-29T06:45:16.239Z,69.10
2018-06-29T06:47:45.666Z,68.60
2018-06-29T06:50:15.228Z,68.10
2018-06-29T06:52:44.768Z,67.50
2018-06-29T06:55:14.110Z,67.10
2018-06-29T07:00:12.676Z,64.50
2018-06-29T07:02:41.961Z,63.70
2018-06-29T07:05:11.997Z,63.60
2018-06-29T07:07:42.635Z,62.50
2018-06-29T07:10:13.777Z,62.30
2018-06-29T07:12:43.299Z,61.50
2018-06-29T07:15:15.252Z,60.90
2018-06-29T07:17:45.976Z,60.20
2018-06-29T07:22:52.067Z,59.60
2018-06-29T07:30:20.023Z,57.20
2018-06-29T07:32:49.465Z,57.70
2018-06-29T07:43:14.009Z,54.80
2018-06-29T07:48:12.976Z,54.30
2018-06-29T07:50:42.445Z,53.10
2018-06-29T07:53:12.986Z,52.40
2018-06-29T07:55:43.303Z,52.00
2018-06-29T07:58:12.810Z,51.40
2018-06-29T08:00:42.110Z,50.00
2018-06-29T08:03:11.865Z,49.40
2018-06-29T08:05:41.349Z,49.50
2018-06-29T08:08:11.656Z,49.00
2018-06-29T08:10:41.158Z,48.30
2018-06-29T08:13:10.565Z,48.50
2018-06-29T08:15:39.917Z,48.50
2018-06-29T08:18:09.276Z,48.00
2018-06-29T08:20:38.680Z,48.00
2018-06-29T08:23:08.087Z,47.10
2018-06-29T08:25:37.549Z,47.20
2018-06-29T08:30:36.557Z,47.00
2018-06-29T08:33:06.536Z,47.30
2018-06-29T08:35:37.112Z,47.10
2018-06-29T08:38:06.619Z,46.80
2018-06-29T08:40:36.762Z,46.80
2018-06-29T08:43:07.181Z,46.00
2018-06-29T08:45:36.629Z,46.10
2018-06-29T08:50:35.075Z,45.10
2018-06-29T08:53:04.461Z,45.20
2018-06-29T08:55:36.761Z,45.10
2018-06-29T08:58:06.884Z,44.90
2018-06-29T09:00:36.249Z,44.00
2018-06-29T09:03:06.716Z,43.90
2018-06-29T09:05:36.623Z,44.40
2018-06-29T09:08:10.252Z,44.70
2018-06-29T09:10:39.934Z,44.00
2018-06-29T09:13:09.336Z,44.50
2018-06-29T09:15:38.677Z,43.40
2018-06-29T09:20:36.909Z,42.90
2018-06-29T09:23:07.289Z,42.50
2018-06-29T09:25:37.380Z,42.00
2018-06-29T09:28:07.511Z,41.90
2018-06-29T09:30:36.951Z,41.40
2018-06-29T09:33:06.769Z,41.60
2018-06-29T09:35:36.254Z,41.10
2018-06-29T09:40:34.905Z,40.80
2018-06-29T09:43:05.024Z,40.10
2018-06-29T09:45:34.443Z,40.00
2018-06-29T09:48:04.344Z,40.20
2018-06-29T09:50:33.584Z,40.50
2018-06-29T09:55:36.599Z,40.90
2018-06-29T09:58:07.063Z,41.30
2018-06-29T10:00:36.524Z,41.40
2018-06-29T10:03:07.830Z,41.60
2018-06-29T10:05:37.279Z,41.20
2018-06-29T10:08:06.973Z,40.80
2018-06-29T10:10:38.053Z,40.70
2018-06-29T10:13:07.674Z,40.60
2018-06-29T10:15:37.648Z,40.50
2018-06-29T10:20:36.703Z,40.30
2018-06-29T10:23:06.690Z,40.70
2018-06-29T10:25:36.450Z,40.50
2018-06-29T10:28:09.372Z,40.20
2018-06-29T10:30:39.556Z,39.60
2018-06-29T10:33:08.908Z,39.00
2018-06-29T10:35:38.465Z,37.90
2018-06-29T10:38:08.578Z,37.90
2018-06-29T10:40:41.131Z,37.50
2018-06-29T10:43:10.660Z,36.90
2018-06-29T10:45:40.403Z,37.00
2018-06-29T10:48:10.805Z,37.00
2018-06-29T10:53:10.007Z,36.20
2018-06-29T10:55:39.769Z,36.40
2018-06-29T10:58:09.532Z,36.00
2018-06-29T11:00:43.701Z,36.40
2018-06-29T11:03:13.744Z,36.00
2018-06-29T11:05:43.128Z,35.60
2018-06-29T11:08:12.525Z,35.30
2018-06-29T11:10:42.064Z,36.40
2018-06-29T11:13:11.462Z,36.50
2018-06-29T11:15:41.676Z,36.30
2018-06-29T11:18:11.877Z,36.00
2018-06-29T11:20:42.324Z,35.80
2018-06-29T11:23:11.788Z,35.40
2018-06-29T11:25:41.378Z,35.00
2018-06-29T11:30:39.877Z,35.50
2018-06-29T11:35:39.194Z,35.40
2018-06-29T11:40:39.041Z,35.30
2018-06-29T11:43:08.469Z,35.50
2018-06-29T11:45:37.952Z,35.50
2018-06-29T11:48:07.366Z,35.70
2018-06-29T11:50:36.731Z,35.10
2018-06-29T11:55:35.543Z,35.60
2018-06-29T11:58:06.006Z,35.10
2018-06-29T12:00:35.719Z,35.30
2018-06-29T12:03:05.669Z,35.50
2018-06-29T12:05:35.872Z,35.40
2018-06-29T12:08:13.127Z,35.60
2018-06-29T12:10:42.504Z,36.00
2018-06-29T12:15:41.388Z,35.80
2018-06-29T12:20:42.051Z,35.40
2018-06-29T12:23:11.735Z,34.90
2018-06-29T12:25:42.863Z,34.80
2018-06-29T12:28:12.838Z,34.20
2018-06-29T12:30:42.546Z,33.60
2018-06-29T12:33:12.645Z,32.70
2018-06-29T12:35:45.000Z,32.00
2018-06-29T12:38:16.308Z,30.30
2018-06-29T12:40:45.869Z,29.60
2018-06-29T12:43:15.516Z,29.20
2018-06-29T12:45:44.996Z,28.20
2018-06-29T12:48:16.272Z,27.60
2018-06-29T12:50:45.706Z,28.00
2018-06-29T12:53:15.942Z,28.20
2018-06-29T12:58:14.264Z,27.50
2018-06-29T13:00:43.946Z,27.40
2018-06-29T13:03:13.741Z,27.70
2018-06-29T13:05:43.979Z,27.70
2018-06-29T13:08:13.280Z,27.40
2018-06-29T13:10:42.916Z,27.00
2018-06-29T13:13:12.357Z,25.60
2018-06-29T13:15:41.900Z,26.00
2018-06-29T13:18:11.560Z,26.30
2018-06-29T13:20:40.996Z,27.30
2018-06-29T13:30:43.312Z,26.70
2018-06-29T13:33:12.745Z,26.60
2018-06-29T13:35:54.024Z,25.80
2018-06-29T13:38:45.244Z,25.20
2018-06-29T13:41:15.618Z,25.30
2018-06-29T13:43:45.290Z,25.00
2018-06-29T13:46:15.271Z,24.70
2018-06-29T13:51:13.676Z,23.60
2018-06-29T13:53:43.118Z,23.20
2018-06-29T13:56:20.307Z,22.70
2018-06-29T13:59:14.384Z,22.90
2018-06-29T14:01:54.724Z,23.40
2018-06-29T14:04:44.772Z,24.20
2018-06-29T14:09:46.401Z,25.10
2018-06-29T14:14:47.468Z,24.70
2018-06-29T14:17:19.142Z,24.70
2018-06-29T14:19:48.589Z,25.40
2018-06-29T14:22:18.743Z,25.60
2018-06-29T14:24:49.325Z,26.40
2018-06-29T14:27:18.946Z,26.50
2018-06-29T14:29:48.422Z,25.80
2018-06-29T14:34:47.098Z,26.90
2018-06-29T14:37:18.006Z,27.40
2018-06-29T14:39:47.709Z,28.00
2018-06-29T14:42:17.861Z,28.60
2018-06-29T14:44:47.985Z,28.90
2018-06-29T14:47:19.089Z,29.20
2018-06-29T14:49:48.602Z,29.00
2018-06-29T14:52:19.405Z,28.50
2018-06-29T14:54:48.802Z,27.70
2018-06-29T14:57:18.208Z,26.40
2018-06-29T14:59:47.641Z,26.00
2018-06-29T15:02:18.273Z,25.20
2018-06-29T15:04:48.960Z,24.30
2018-06-29T15:07:18.732Z,25.10
2018-06-29T15:09:51.674Z,25.20
2018-06-29T15:12:22.236Z,26.40
2018-06-29T15:14:52.238Z,26.60
2018-06-29T15:17:22.415Z,26.60
2018-06-29T15:24:50.672Z,26.20
2018-06-29T15:27:20.124Z,25.00
2018-06-29T15:29:49.579Z,25.00
2018-06-29T15:32:18.938Z,26.30
2018-06-29T15:37:17.866Z,28.50
2018-06-29T15:40:10.675Z,33.40
2018-06-29T15:56:41.456Z,43.20
2018-06-29T15:59:11.194Z,44.00
2018-06-29T16:06:43.700Z,45.40
2018-06-29T16:09:15.948Z,44.20
2018-06-29T16:11:58.286Z,43.40
2018-06-29T16:14:28.360Z,43.40
2018-06-29T16:16:57.902Z,43.40
2018-06-29T16:19:27.280Z,44.50
2018-06-29T16:21:56.777Z,45.10
2018-06-29T16:24:26.125Z,45.60
2018-06-29T16:29:24.490Z,47.10
2018-06-29T16:31:53.888Z,46.90
2018-06-29T16:34:23.317Z,46.80
2018-06-29T16:36:52.770Z,46.60
2018-06-29T16:39:22.238Z,47.40
2018-06-29T16:46:49.515Z,45.20
2018-06-29T16:54:19.426Z,48.30
2018-06-29T16:56:48.958Z,48.10
2018-06-29T17:01:47.918Z,49.00
2018-06-29T17:04:17.339Z,48.00
2018-06-29T17:06:46.674Z,47.60
2018-06-29T17:09:15.984Z,48.50
2018-06-29T17:14:15.086Z,49.20
2018-06-29T17:19:13.463Z,50.80
2018-06-29T17:21:42.964Z,51.60
2018-06-29T17:24:12.301Z,52.20
2018-06-29T17:26:41.609Z,52.90
2018-06-29T17:29:11.412Z,53.00
2018-06-29T17:31:40.853Z,53.30
2018-06-29T17:34:10.776Z,53.70
2018-06-29T17:36:40.632Z,54.60
2018-06-29T17:44:10.636Z,56.90
2018-06-29T17:46:44.748Z,57.30
2018-06-29T17:49:16.510Z,57.80
2018-06-29T17:51:47.610Z,58.30
2018-06-29T17:54:16.976Z,58.90
2018-06-29T17:56:46.419Z,59.00
2018-06-29T17:59:17.577Z,59.40
2018-06-29T18:01:47.702Z,59.90
2018-06-29T18:04:17.068Z,60.00
2018-06-29T18:06:46.436Z,60.10
2018-06-29T18:09:15.797Z,60.50
2018-06-29T18:11:45.169Z,60.80
2018-06-29T18:14:14.667Z,61.20
2018-06-29T18:19:14.322Z,62.60
2018-06-29T18:21:43.688Z,63.40
2018-06-29T18:24:13.607Z,64.20
2018-06-29T18:26:43.210Z,64.90
2018-06-29T18:31:42.224Z,66.10
2018-06-29T18:36:40.901Z,67.30
2018-06-29T18:39:11.354Z,68.40
2018-06-29T18:44:10.308Z,67.70
2018-06-29T18:46:40.198Z,68.60
2018-06-29T18:49:09.820Z,69.40
2018-06-29T18:51:39.870Z,70.20
2018-06-29T18:54:09.948Z,69.80
2018-06-29T18:56:39.504Z,70.40
2018-06-29T18:59:08.872Z,70.40
2018-06-29T19:01:38.375Z,69.80
2018-06-29T19:04:08.641Z,70.10
2018-06-29T19:09:08.520Z,70.20
2018-06-29T19:11:38.906Z,70.10
2018-06-29T19:14:11.372Z,70.70
2018-06-29T19:16:44.529Z,71.20
2018-06-29T19:19:13.990Z,71.60
2018-06-29T19:21:46.105Z,71.80
2018-06-29T19:24:15.481Z,72.20
2018-06-29T19:26:46.497Z,72.30
2018-06-29T19:29:16.498Z,72.30
2018-06-29T19:32:14.347Z,72.50
2018-06-29T19:34:45.842Z,72.60
2018-06-29T19:37:15.816Z,72.70
2018-06-29T19:44:49.300Z,73.10
2018-06-29T19:47:22.043Z,73.00
2018-06-29T19:49:51.761Z,73.30
2018-06-29T19:52:23.569Z,72.10
2018-06-29T19:54:57.783Z,71.80
2018-06-29T19:57:29.099Z,71.50
2018-06-29T19:59:59.757Z,71.20
2018-06-29T20:02:29.290Z,70.80
2018-06-29T20:07:29.771Z,71.20
2018-06-29T20:09:59.118Z,71.20
2018-06-29T20:12:32.309Z,71.60
2018-06-29T20:17:34.021Z,71.60
2018-06-29T20:20:04.186Z,71.70
2018-06-29T20:22:34.263Z,71.80
2018-06-29T20:25:03.683Z,72.20
2018-06-29T20:27:33.209Z,72.50
2018-06-29T20:30:04.086Z,73.20
2018-06-29T20:32:33.626Z,73.90
2018-06-29T20:35:03.179Z,74.70
2018-06-29T20:40:12.863Z,76.50
2018-06-29T20:42:49.691Z,76.70
2018-06-29T20:45:19.684Z,77.60
2018-06-29T20:47:50.697Z,78.80
2018-06-29T20:50:20.569Z,79.20
2018-06-29T20:52:51.887Z,79.80
2018-06-29T20:58:01.554Z,81.10
2018-06-29T21:00:31.390Z,81.50
2018-06-29T21:03:02.845Z,81.80
2018-06-29T21:08:13.396Z,82.40
2018-06-29T21:10:44.623Z,82.70
2018-06-29T21:13:18.035Z,83.20
2018-06-29T21:15:50.256Z,83.40
2018-06-29T21:20:57.809Z,84.00
2018-06-29T21:23:27.799Z,84.50
2018-06-29T21:25:57.736Z,84.80
2018-06-29T21:28:44.186Z,85.40
2018-06-29T21:33:48.982Z,86.20
2018-06-29T21:36:18.458Z,86.50
2018-06-29T21:38:47.825Z,86.80
2018-06-29T21:41:17.296Z,87.10
2018-06-29T21:43:47.393Z,86.80
2018-06-29T21:46:17.555Z,86.70
2018-06-29T21:48:46.941Z,86.60
2018-06-29T21:51:16.290Z,86.80
2018-06-29T21:56:16.744Z,86.60
2018-06-29T21:58:46.106Z,86.60
2018-06-29T22:03:44.830Z,86.00
2018-06-29T22:08:48.955Z,86.50
2018-06-29T22:11:19.084Z,85.40
2018-06-29T22:18:47.420Z,85.70
2018-06-29T22:21:16.777Z,85.80
2018-06-29T22:23:48.099Z,85.90
2018-06-29T22:26:17.430Z,86.20
2018-06-29T22:28:46.800Z,86.10
2018-06-29T22:31:16.265Z,86.10
2018-06-29T22:33:45.634Z,86.20
2018-06-29T22:38:44.129Z,86.20
2018-06-29T22:41:14.336Z,85.90
2018-06-29T22:43:43.741Z,85.80
2018-06-29T22:46:13.109Z,85.90
2018-06-29T22:48:42.461Z,86.10
2018-06-29T22:53:40.647Z,86.00
2018-06-29T23:01:08.556Z,85.70
2018-06-29T23:03:43.112Z,85.70
2018-06-29T23:06:12.612Z,85.30
2018-06-29T23:08:42.116Z,85.40
2018-06-29T23:11:11.514Z,85.50
2018-06-29T23:13:40.998Z,85.50
2018-06-29T23:16:10.433Z,85.30
2018-06-29T23:18:39.736Z,85.30
2018-06-29T23:21:09.148Z,85.00
2018-06-29T23:23:39.255Z,85.20
2018-06-29T23:26:08.651Z,84.90
2018-06-29T23:28:38.205Z,85.10
2018-06-29T23:31:08.560Z,84.90
2018-06-29T23:33:37.965Z,84.90
2018-06-29T23:36:07.356Z,85.10
2018-06-29T23:41:16.873Z,85.30
2018-06-29T23:43:47.248Z,85.30
2018-06-29T23:46:17.701Z,85.40
2018-06-29T23:48:47.177Z,85.40
2018-06-29T23:51:17.425Z,85.60
2018-06-29T23:53:46.801Z,85.80
2018-06-29T23:56:16.212Z,86.00
2018-06-29T23:58:45.555Z,85.90
